createdAt,value
2022-09-07T00:01:19.476Z,30.85
2022-09-07T00:03:47.578Z,29.90
2022-09-07T00:06:16.045Z,29.71
2022-09-07T00:08:46.488Z,30.17
2022-09-07T00:11:19.472Z,30.68
2022-09-07T00:13:50.771Z,30.28
2022-09-07T00:16:23.489Z,29.76
2022-09-07T00:18:53.758Z,29.30
2022-09-07T00:21:21.859Z,29.27
2022-09-07T00:23:50.745Z,29.54
2022-09-07T00:26:22.357Z,29.51
2022-09-07T00:28:53.411Z,29.42
2022-09-07T00:31:24.309Z,29.09
2022-09-07T00:33:57.838Z,29.60
2022-09-07T00:36:25.459Z,29.48
2022-09-07T00:38:56.088Z,29.56
2022-09-07T00:41:26.735Z,29.97
2022-09-07T00:43:57.355Z,32.75
2022-09-07T00:46:31.563Z,35.13
2022-09-07T00:49:08.703Z,34.32
2022-09-07T00:51:44.476Z,34.64
2022-09-07T00:54:19.779Z,33.31
2022-09-07T00:56:52.135Z,33.11
2022-09-07T00:59:27.694Z,31.16
2022-09-07T01:01:58.556Z,29.45
2022-09-07T01:04:31.107Z,29.17
2022-09-07T01:06:59.901Z,28.94
2022-09-07T01:09:29.737Z,28.61
2022-09-07T01:12:00.576Z,28.64
2022-09-07T01:14:35.411Z,28.62
2022-09-07T01:17:37.294Z,28.38
2022-09-07T01:20:33.259Z,28.12
2022-09-07T01:23:33.619Z,27.92
2022-09-07T01:26:22.747Z,27.70
2022-09-07T01:29:11.238Z,27.60
2022-09-07T01:31:55.352Z,27.31
2022-09-07T01:34:24.360Z,27.05
2022-09-07T01:37:16.509Z,26.87
2022-09-07T01:40:09.919Z,26.52
2022-09-07T01:42:54.735Z,26.36
2022-09-07T01:45:28.810Z,26.08
2022-09-07T01:47:59.432Z,25.84
2022-09-07T01:50:59.225Z,25.65
2022-09-07T01:53:34.527Z,25.45
2022-09-07T01:56:13.559Z,25.01
2022-09-07T01:58:44.446Z,24.69
2022-09-07T02:01:21.051Z,24.76
2022-09-07T02:04:13.056Z,24.81
2022-09-07T02:06:52.287Z,24.51
2022-09-07T02:09:34.208Z,24.49
2022-09-07T02:12:08.300Z,24.82
2022-09-07T02:14:42.366Z,24.66
2022-09-07T02:17:39.470Z,24.54
2022-09-07T02:20:16.827Z,24.34
2022-09-07T02:22:52.855Z,24.00
2022-09-07T02:25:27.316Z,23.95
2022-09-07T02:28:19.647Z,24.22
2022-09-07T02:30:47.811Z,23.55
2022-09-07T02:33:18.361Z,22.49
2022-09-07T02:35:49.902Z,22.66
2022-09-07T02:38:20.688Z,22.59
2022-09-07T02:40:53.856Z,22.62
2022-09-07T02:43:26.166Z,22.26
2022-09-07T02:45:57.201Z,22.38
2022-09-07T02:48:40.064Z,22.21
2022-09-07T02:51:15.354Z,21.99
2022-09-07T02:53:52.052Z,21.97
2022-09-07T02:56:25.842Z,21.15
2022-09-07T02:59:04.766Z,21.18
2022-09-07T03:02:08.090Z,21.02
2022-09-07T03:05:26.470Z,21.01
2022-09-07T03:08:04.418Z,20.68
2022-09-07T03:10:33.015Z,20.95
2022-09-07T03:13:01.074Z,20.90
2022-09-07T03:15:29.350Z,20.47
2022-09-07T03:17:57.546Z,20.20
2022-09-07T03:20:25.803Z,20.41
2022-09-07T03:22:54.137Z,19.85
2022-09-07T03:25:24.783Z,19.71
2022-09-07T03:27:52.783Z,19.82
2022-09-07T03:30:21.013Z,19.90
2022-09-07T03:32:51.792Z,20.14
2022-09-07T03:35:19.954Z,20.15
2022-09-07T03:37:48.174Z,20.22
2022-09-07T03:40:17.469Z,20.42
2022-09-07T03:42:51.685Z,19.80
2022-09-07T03:45:20.107Z,19.58
2022-09-07T03:47:48.160Z,19.34
2022-09-07T03:50:16.315Z,18.58
2022-09-07T03:52:44.322Z,18.46
2022-09-07T03:55:12.444Z,18.65
2022-09-07T03:57:43.440Z,18.57
2022-09-07T04:00:12.358Z,18.58
2022-09-07T04:02:40.837Z,18.48
2022-09-07T04:05:12.078Z,18.37
2022-09-07T04:07:42.398Z,18.27
2022-09-07T04:10:10.648Z,18.09
2022-09-07T04:12:38.701Z,17.95
2022-09-07T04:15:09.747Z,18.03
2022-09-07T04:17:37.793Z,17.97
2022-09-07T04:20:07.704Z,17.84
2022-09-07T04:22:35.778Z,17.77
2022-09-07T04:25:03.971Z,17.71
2022-09-07T04:27:32.045Z,17.47
2022-09-07T04:30:05.391Z,17.31
2022-09-07T04:32:33.444Z,17.13
2022-09-07T04:35:01.551Z,17.21
2022-09-07T04:37:32.538Z,17.11
2022-09-07T04:40:02.925Z,17.19
2022-09-07T04:42:31.263Z,17.22
2022-09-07T04:45:04.019Z,17.31
2022-09-07T04:47:34.322Z,17.22
2022-09-07T04:50:02.365Z,17.24
2022-09-07T04:52:30.493Z,17.05
2022-09-07T04:54:58.511Z,16.85
2022-09-07T04:57:26.624Z,16.74
2022-09-07T04:59:57.613Z,16.72
2022-09-07T05:02:25.726Z,16.67
2022-09-07T05:04:53.785Z,16.42
2022-09-07T05:07:24.378Z,16.47
2022-09-07T05:09:52.449Z,16.42
2022-09-07T05:12:20.478Z,16.47
2022-09-07T05:14:48.534Z,16.46
2022-09-07T05:17:19.216Z,16.42
2022-09-07T05:19:48.908Z,15.78
2022-09-07T05:22:16.951Z,15.42
2022-09-07T05:24:45.355Z,15.64
2022-09-07T05:27:13.432Z,15.40
2022-09-07T05:32:29.584Z,15.45
2022-09-07T05:34:57.695Z,15.22
2022-09-07T05:37:28.414Z,15.37
2022-09-07T05:39:56.430Z,15.46
2022-09-07T05:42:26.878Z,15.17
2022-09-07T05:44:59.919Z,15.24
2022-09-07T05:47:30.293Z,15.27
2022-09-07T05:49:58.331Z,15.39
2022-09-07T05:52:26.600Z,15.46
2022-09-07T05:55:07.759Z,15.36
2022-09-07T05:57:48.079Z,15.17
2022-09-07T06:00:19.057Z,15.03
2022-09-07T06:02:50.121Z,14.89
2022-09-07T06:05:18.292Z,14.87
2022-09-07T06:07:48.425Z,14.89
2022-09-07T06:13:05.595Z,14.88
2022-09-07T06:15:34.440Z,14.79
2022-09-07T06:18:02.463Z,14.67
2022-09-07T06:20:30.528Z,14.56
2022-09-07T06:23:00.010Z,14.52
2022-09-07T06:25:28.124Z,14.42
2022-09-07T06:27:58.536Z,14.34
2022-09-07T06:30:27.091Z,14.29
2022-09-07T06:32:58.032Z,14.34
2022-09-07T06:35:28.348Z,14.38
2022-09-07T06:37:56.377Z,14.14
2022-09-07T06:40:26.966Z,13.96
2022-09-07T06:42:54.947Z,13.98
2022-09-07T06:45:25.425Z,13.69
2022-09-07T06:47:54.921Z,13.79
2022-09-07T06:50:22.941Z,13.69
2022-09-07T06:55:45.706Z,13.57
2022-09-07T06:58:16.679Z,13.28
2022-09-07T07:00:45.052Z,13.53
2022-09-07T07:03:13.172Z,13.50
2022-09-07T07:05:41.300Z,13.58
2022-09-07T07:08:09.428Z,13.58
2022-09-07T07:10:42.823Z,13.58
2022-09-07T07:15:41.572Z,13.66
2022-09-07T07:18:20.804Z,13.68
2022-09-07T07:20:49.508Z,13.69
2022-09-07T07:23:17.517Z,13.60
2022-09-07T07:25:45.881Z,13.48
2022-09-07T07:31:09.923Z,13.15
2022-09-07T07:33:39.642Z,13.30
2022-09-07T07:36:19.680Z,13.22
2022-09-07T07:39:04.811Z,13.12
2022-09-07T07:44:21.775Z,12.91
2022-09-07T07:46:51.345Z,12.93
2022-09-07T07:49:19.898Z,12.91
2022-09-07T07:54:39.077Z,12.82
2022-09-07T07:57:07.278Z,12.73
2022-09-07T07:59:35.979Z,12.76
2022-09-07T08:02:05.032Z,12.81
2022-09-07T08:04:37.014Z,12.64
2022-09-07T08:07:10.303Z,12.69
2022-09-07T08:09:40.582Z,12.52
2022-09-07T08:12:09.605Z,12.52
2022-09-07T08:14:37.687Z,12.48
2022-09-07T08:17:05.663Z,12.45
2022-09-07T08:19:34.006Z,12.57
2022-09-07T08:22:02.027Z,12.40
2022-09-07T08:24:31.001Z,11.87
2022-09-07T08:30:20.694Z,12.21
2022-09-07T08:32:48.690Z,12.20
2022-09-07T08:35:19.433Z,12.14
2022-09-07T08:41:52.435Z,12.11
2022-09-07T08:44:41.266Z,12.03
2022-09-07T08:47:35.757Z,12.05
2022-09-07T08:50:12.827Z,12.38
2022-09-07T08:53:04.463Z,12.15
2022-09-07T08:55:44.696Z,12.17
2022-09-07T08:58:49.631Z,12.16
2022-09-07T09:01:39.677Z,12.25
2022-09-07T09:04:30.738Z,12.04
2022-09-07T09:07:22.964Z,11.93
2022-09-07T09:09:56.316Z,11.65
2022-09-07T09:12:48.202Z,11.77
2022-09-07T09:15:42.739Z,11.63
2022-09-07T09:18:22.679Z,11.66
2022-09-07T09:20:54.455Z,11.71
2022-09-07T09:23:27.200Z,11.61
2022-09-07T09:25:59.897Z,11.71
2022-09-07T09:28:32.446Z,11.57
2022-09-07T09:31:00.725Z,11.65
2022-09-07T09:33:32.624Z,11.51
2022-09-07T09:36:04.021Z,11.50
2022-09-07T09:38:37.688Z,11.30
2022-09-07T09:41:16.415Z,11.42
2022-09-07T09:43:54.694Z,11.51
2022-09-07T09:46:22.768Z,11.55
2022-09-07T09:49:05.854Z,11.49
2022-09-07T09:54:42.534Z,11.28
2022-09-07T09:57:17.534Z,11.15
2022-09-07T10:00:05.265Z,11.36
2022-09-07T10:05:35.649Z,11.35
2022-09-07T10:08:15.784Z,11.17
2022-09-07T10:11:07.275Z,11.38
2022-09-07T10:13:55.748Z,11.38
2022-09-07T10:16:42.567Z,11.34
2022-09-07T10:19:37.386Z,11.39
2022-09-07T10:22:25.623Z,11.50
2022-09-07T10:32:14.122Z,11.11
2022-09-07T10:35:02.877Z,11.11
2022-09-07T10:37:44.917Z,10.85
2022-09-07T10:40:34.059Z,11.02
2022-09-07T10:43:28.120Z,10.95
2022-09-07T10:46:13.912Z,11.21
2022-09-07T10:49:04.371Z,11.18
2022-09-07T10:51:41.102Z,11.15
2022-09-07T10:54:30.509Z,11.21
2022-09-07T10:57:25.903Z,11.12
2022-09-07T11:00:12.206Z,10.99
2022-09-07T11:06:11.515Z,10.84
2022-09-07T11:12:03.829Z,10.64
2022-09-07T11:14:45.378Z,10.75
2022-09-07T11:17:24.807Z,10.67
2022-09-07T11:20:33.175Z,10.56
2022-09-07T11:23:18.199Z,10.59
2022-09-07T11:25:52.977Z,10.59
2022-09-07T11:29:28.766Z,10.34
2022-09-07T11:31:39.001Z,10.40
2022-09-07T11:34:37.381Z,10.49
2022-09-07T11:37:11.543Z,10.68
2022-09-07T11:39:49.548Z,10.72
2022-09-07T11:42:48.032Z,10.69
2022-09-07T11:45:41.730Z,10.35
2022-09-07T11:48:22.693Z,10.16
2022-09-07T11:50:56.803Z,10.18
2022-09-07T11:53:29.346Z,10.01
2022-09-07T11:56:04.821Z,10.04
2022-09-07T11:58:35.411Z,9.87
2022-09-07T12:01:14.949Z,10.07
2022-09-07T12:04:04.117Z,10.01
2022-09-07T12:06:53.184Z,9.95
2022-09-07T12:09:42.473Z,10.07
2022-09-07T12:12:38.064Z,9.80
2022-09-07T12:15:23.783Z,10.12
2022-09-07T12:18:02.997Z,10.14
2022-09-07T12:20:49.486Z,10.09
2022-09-07T12:23:17.420Z,10.11
2022-09-07T12:25:50.677Z,10.11
2022-09-07T12:28:37.056Z,10.32
2022-09-07T12:31:13.008Z,10.25
2022-09-07T12:33:41.697Z,10.38
2022-09-07T12:36:27.990Z,10.34
2022-09-07T12:39:21.329Z,10.36
2022-09-07T12:45:30.369Z,9.76
2022-09-07T12:48:04.615Z,9.80
2022-09-07T12:50:51.029Z,9.99
2022-09-07T12:53:57.575Z,10.06
2022-09-07T12:56:39.579Z,10.13
2022-09-07T12:59:25.486Z,10.25
2022-09-07T13:02:11.174Z,10.39
2022-09-07T13:04:53.050Z,10.57
2022-09-07T13:07:29.871Z,10.64
2022-09-07T13:10:04.449Z,10.72
2022-09-07T13:12:56.805Z,10.82
2022-09-07T13:15:34.737Z,10.57
2022-09-07T13:18:05.723Z,10.49
2022-09-07T13:20:39.097Z,10.45
2022-09-07T13:23:19.609Z,10.72
2022-09-07T13:25:52.164Z,10.78
2022-09-07T13:28:43.100Z,10.87
2022-09-07T13:31:24.492Z,10.88
2022-09-07T13:33:53.726Z,11.06
2022-09-07T13:36:41.556Z,11.12
2022-09-07T13:39:15.603Z,11.22
2022-09-07T13:41:47.007Z,11.31
2022-09-07T13:44:26.774Z,11.43
2022-09-07T13:47:01.095Z,11.28
2022-09-07T13:49:29.106Z,11.28
2022-09-07T13:52:18.620Z,11.29
2022-09-07T13:55:06.574Z,11.52
2022-09-07T13:58:01.364Z,11.55
2022-09-07T14:00:29.341Z,11.59
2022-09-07T14:03:06.973Z,11.41
2022-09-07T14:05:35.041Z,11.60
2022-09-07T14:08:03.980Z,11.66
2022-09-07T14:10:31.988Z,11.35
2022-09-07T14:13:13.099Z,11.57
2022-09-07T14:15:46.806Z,11.57
2022-09-07T14:18:23.779Z,11.84
2022-09-07T14:20:53.637Z,11.85
2022-09-07T14:23:32.794Z,12.00
2022-09-07T14:26:18.899Z,12.21
2022-09-07T14:28:50.119Z,12.22
2022-09-07T14:31:23.917Z,12.26
2022-09-07T14:33:57.401Z,12.30
2022-09-07T14:36:44.830Z,12.40
2022-09-07T14:39:17.246Z,12.39
2022-09-07T14:41:46.332Z,12.54
2022-09-07T14:44:35.691Z,12.80
2022-09-07T14:47:26.539Z,13.09
2022-09-07T14:50:00.940Z,13.17
2022-09-07T14:52:39.155Z,12.63
2022-09-07T14:55:30.681Z,12.53
2022-09-07T14:58:21.806Z,12.69
2022-09-07T15:03:41.675Z,12.85
2022-09-07T15:07:01.043Z,13.02
2022-09-07T15:08:59.642Z,12.86
2022-09-07T15:11:33.738Z,12.94
2022-09-07T15:14:12.568Z,12.79
2022-09-07T15:16:44.461Z,12.85
2022-09-07T15:19:18.859Z,12.81
2022-09-07T15:21:49.617Z,12.84
2022-09-07T15:24:20.534Z,13.21
2022-09-07T15:27:05.695Z,13.31
2022-09-07T15:29:33.782Z,13.28
2022-09-07T15:32:04.918Z,13.31
2022-09-07T15:34:34.729Z,13.62
2022-09-07T15:38:01.107Z,13.60
2022-09-07T15:39:53.361Z,13.76
2022-09-07T15:45:12.934Z,13.97
2022-09-07T15:47:43.770Z,13.86
2022-09-07T15:50:15.446Z,14.01
2022-09-07T15:52:46.423Z,13.96
2022-09-07T15:55:17.397Z,13.91
2022-09-07T15:57:52.733Z,13.88
2022-09-07T16:00:28.008Z,14.05
2022-09-07T16:03:11.294Z,14.18
2022-09-07T16:05:43.780Z,14.16
2022-09-07T16:08:32.658Z,14.12
2022-09-07T16:11:17.898Z,14.37
2022-09-07T16:13:47.883Z,14.43
2022-09-07T16:16:16.481Z,14.67
2022-09-07T16:18:47.434Z,15.14
2022-09-07T16:21:16.820Z,15.23
2022-09-07T16:23:50.816Z,15.14
2022-09-07T16:26:22.311Z,15.07
2022-09-07T16:28:52.408Z,14.81
2022-09-07T16:31:26.315Z,14.83
2022-09-07T16:33:54.413Z,14.95
2022-09-07T16:36:23.529Z,15.13
2022-09-07T16:38:59.988Z,15.24
2022-09-07T16:41:30.958Z,15.43
2022-09-07T16:43:59.722Z,15.68
2022-09-07T16:46:29.915Z,15.87
2022-09-07T16:48:58.903Z,16.26
2022-09-07T16:51:29.820Z,16.75
2022-09-07T16:53:58.613Z,17.23
2022-09-07T16:56:29.625Z,17.64
2022-09-07T16:59:04.023Z,18.29
2022-09-07T17:01:37.289Z,18.64
2022-09-07T17:04:10.436Z,18.85
2022-09-07T17:06:40.206Z,18.87
2022-09-07T17:09:08.787Z,18.55
2022-09-07T17:11:40.149Z,18.40
2022-09-07T17:14:08.431Z,18.72
2022-09-07T17:16:39.180Z,19.21
2022-09-07T17:21:57.676Z,19.65
2022-09-07T17:24:25.926Z,19.75
2022-09-07T17:26:53.931Z,19.48
2022-09-07T17:29:21.990Z,19.32
2022-09-07T17:34:40.591Z,19.16
2022-09-07T17:37:11.536Z,19.45
2022-09-07T17:39:39.551Z,19.66
2022-09-07T17:42:07.677Z,19.61
2022-09-07T17:44:38.321Z,19.83
2022-09-07T17:47:09.339Z,19.80
2022-09-07T17:49:37.353Z,20.10
2022-09-07T17:52:07.683Z,20.21
2022-09-07T17:54:38.616Z,20.02
2022-09-07T17:57:06.657Z,19.97
2022-09-07T18:02:22.886Z,20.14
2022-09-07T18:04:50.906Z,20.41
2022-09-07T18:07:18.950Z,21.13
2022-09-07T18:09:48.509Z,20.73
2022-09-07T18:12:16.594Z,21.01
2022-09-07T18:14:44.898Z,21.54
2022-09-07T18:17:15.621Z,22.17
2022-09-07T18:19:43.651Z,21.62
2022-09-07T18:22:15.311Z,22.18
2022-09-07T18:24:43.483Z,22.41
2022-09-07T18:27:17.293Z,22.94
2022-09-07T18:29:45.234Z,22.97
2022-09-07T18:32:13.261Z,24.03
2022-09-07T18:34:41.643Z,23.87
2022-09-07T18:37:10.389Z,24.57
2022-09-07T18:39:38.387Z,24.73
2022-09-07T18:42:07.773Z,24.42
2022-09-07T18:47:28.630Z,25.23
2022-09-07T18:50:00.417Z,25.45
2022-09-07T18:55:19.959Z,26.24
2022-09-07T18:57:50.595Z,26.41
2022-09-07T19:00:21.233Z,26.39
2022-09-07T19:02:51.993Z,26.59
2022-09-07T19:08:08.137Z,27.28
2022-09-07T19:10:37.943Z,27.35
2022-09-07T19:13:06.616Z,26.82
2022-09-07T19:15:37.300Z,26.73
2022-09-07T19:18:11.365Z,27.46
2022-09-07T19:20:41.978Z,27.45
2022-09-07T19:23:14.963Z,27.49
2022-09-07T19:25:45.873Z,28.00
2022-09-07T19:28:13.839Z,28.41
2022-09-07T19:30:41.830Z,28.49
2022-09-07T19:33:09.810Z,27.43
2022-09-07T19:35:40.099Z,28.36
2022-09-07T19:38:08.169Z,28.37
2022-09-07T19:40:36.179Z,28.55
2022-09-07T19:43:04.161Z,28.56
2022-09-07T19:45:32.188Z,28.51
2022-09-07T19:48:00.145Z,29.19
2022-09-07T19:50:28.117Z,28.56
2022-09-07T19:52:58.693Z,28.11
2022-09-07T19:55:26.710Z,28.45
2022-09-07T19:57:54.785Z,29.28
2022-09-07T20:00:25.792Z,29.09
2022-09-07T20:02:56.461Z,28.18
2022-09-07T20:05:24.808Z,27.72
2022-09-07T20:07:52.805Z,27.81
2022-09-07T20:10:20.908Z,27.83
2022-09-07T20:12:48.862Z,27.81
2022-09-07T20:15:16.922Z,28.57
2022-09-07T20:17:45.018Z,28.18
2022-09-07T20:20:13.000Z,27.76
2022-09-07T20:22:41.083Z,27.63
2022-09-07T20:25:13.023Z,27.36
2022-09-07T20:27:41.520Z,27.30
2022-09-07T20:30:10.019Z,27.08
2022-09-07T20:32:38.081Z,28.07
2022-09-07T20:35:08.952Z,28.87
2022-09-07T20:37:36.975Z,29.53
2022-09-07T20:40:05.471Z,29.97
2022-09-07T20:42:35.829Z,29.95
2022-09-07T20:45:04.008Z,30.11
2022-09-07T20:47:32.044Z,30.70
2022-09-07T20:50:00.153Z,30.23
2022-09-07T20:52:28.646Z,29.86
2022-09-07T20:54:59.223Z,29.58
2022-09-07T20:57:27.278Z,30.08
2022-09-07T20:59:55.350Z,30.60
2022-09-07T21:02:23.443Z,29.73
2022-09-07T21:04:54.435Z,30.94
2022-09-07T21:07:22.463Z,30.43
2022-09-07T21:09:50.923Z,30.04
2022-09-07T21:12:18.902Z,29.86
2022-09-07T21:14:46.938Z,30.58
2022-09-07T21:17:17.360Z,30.20
2022-09-07T21:19:45.375Z,30.27
2022-09-07T21:22:15.999Z,30.93
2022-09-07T21:24:46.301Z,30.32
2022-09-07T21:27:17.949Z,30.32
2022-09-07T21:29:45.977Z,30.16
2022-09-07T21:32:16.487Z,30.33
2022-09-07T21:34:44.584Z,30.24
2022-09-07T21:37:15.469Z,29.67
2022-09-07T21:39:43.505Z,31.18
2022-09-07T21:42:14.100Z,31.38
2022-09-07T21:44:42.822Z,31.84
2022-09-07T21:47:10.967Z,31.43
2022-09-07T21:49:38.949Z,30.75
2022-09-07T21:52:06.947Z,29.88
2022-09-07T21:54:34.969Z,29.64
2022-09-07T21:57:03.970Z,29.01
2022-09-07T21:59:34.892Z,28.93
2022-09-07T22:02:05.659Z,28.51
2022-09-07T22:04:33.713Z,28.72
2022-09-07T22:07:01.759Z,28.62
2022-09-07T22:09:29.749Z,28.33
2022-09-07T22:12:00.501Z,28.37
2022-09-07T22:14:28.552Z,28.17
2022-09-07T22:16:56.601Z,28.73
2022-09-07T22:19:24.693Z,28.57
2022-09-07T22:21:52.711Z,28.74
2022-09-07T22:24:23.258Z,28.58
2022-09-07T22:26:51.320Z,28.68
2022-09-07T22:29:21.592Z,28.82
2022-09-07T22:31:49.852Z,28.40
2022-09-07T22:34:17.875Z,28.94
2022-09-07T22:36:46.627Z,28.74
2022-09-07T22:39:18.139Z,29.47
2022-09-07T22:41:49.499Z,29.70
2022-09-07T22:44:18.968Z,29.51
2022-09-07T22:46:50.730Z,29.33
2022-09-07T22:49:18.925Z,29.18
2022-09-07T22:51:49.369Z,28.72
2022-09-07T22:54:17.366Z,28.42
2022-09-07T22:56:48.179Z,28.45
2022-09-07T22:59:19.106Z,28.97
2022-09-07T23:01:50.482Z,29.88
2022-09-07T23:04:21.220Z,29.69
2022-09-07T23:06:49.287Z,30.20
2022-09-07T23:09:18.832Z,34.24
2022-09-07T23:11:49.997Z,40.53
2022-09-07T23:14:20.457Z,41.01
2022-09-07T23:16:49.011Z,40.42
2022-09-07T23:19:20.290Z,41.63
2022-09-07T23:21:51.147Z,40.54
2022-09-07T23:24:19.813Z,38.49
2022-09-07T23:26:50.408Z,38.41
2022-09-07T23:29:18.432Z,35.91
2022-09-07T23:31:46.991Z,34.10
2022-09-07T23:34:17.339Z,33.53
2022-09-07T23:36:48.257Z,34.82
2022-09-07T23:39:16.263Z,35.06
2022-09-07T23:41:44.294Z,34.53
2022-09-07T23:44:12.310Z,34.07
2022-09-07T23:46:40.384Z,31.51
2022-09-07T23:49:11.289Z,32.59
2022-09-07T23:51:39.323Z,31.26
2022-09-07T23:54:07.403Z,31.43
2022-09-07T23:56:37.721Z,30.59
2022-09-07T23:59:05.913Z,30.79
